Oski — WYD3004 — position and weather

sailwx.info

Track history (hours):
 
Tides and Currents Weather Stations Pressure Air Temp Water Temp Dewpoint Dewpoint Depression Visibility Wind Speed Wind Dir Waves Ship Positions

Oski

Owner: BLUE & GOLD FLEET, SAN FRANCISCO, CA. More information available from US FCC via Universal Licensing System and Coast Guard Vessel Documentation Center.

Last reported at 2016-May-26 04:33 UTC. Time now 2016-May-26 04:41 UTC.
Position N 37°49' W 122°25'.

Length 24 m; draft 2 m.

Type: Passenger vessel. MMSI: 366985320.

Date/timePositionNaut miles runAvg speedWind from/ knotsBaromVisibWave heightAir tempDewpointWater temp
2016-May-26 04:33N 37°49' W 122°25'0 0.0
2016-May-26 03:32N 37°49' W 122°25'0 0.0
2016-May-26 02:33N 37°49' W 122°25'0 0.0
2016-May-26 01:34N 37°49' W 122°25'0 0.0
2016-May-26 00:33N 37°49' W 122°25'0 0.1
2016-May-25 23:33N 37°49' W 122°25'2 2.2
2016-May-25 22:34N 37°49' W 122°27'2 2.2
2016-May-25 21:33N 37°49' W 122°25'2 2.2
2016-May-25 20:33N 37°49' W 122°27'3 2.6
2016-May-25 19:33N 37°49' W 122°24'1 0.5
2016-May-25 18:33N 37°49' W 122°25'0 0.2
2016-May-25 17:33N 37°49' W 122°25'0 0.0
2016-May-25 16:33N 37°49' W 122°25'0 0.0
2016-May-25 15:33N 37°49' W 122°25'0 0.0
2016-May-25 14:33N 37°49' W 122°25'0 0.0
2016-May-25 13:33N 37°49' W 122°25'0 0.0
2016-May-25 12:33N 37°49' W 122°25'0 0.0
2016-May-25 11:33N 37°49' W 122°25'0 0.0
2016-May-25 10:33N 37°49' W 122°25'0 0.0
2016-May-25 09:33N 37°49' W 122°25'0 0.0
2016-May-25 08:33N 37°49' W 122°25'0 0.0
2016-May-25 07:33N 37°49' W 122°25'0 0.0
2016-May-25 06:33N 37°49' W 122°25'0 0.0
2016-May-25 05:33N 37°49' W 122°25'0 0.0
2016-May-25 04:33N 37°49' W 122°25'0 0.0
2016-May-25 03:33N 37°49' W 122°25'0 0.0
2016-May-25 02:33N 37°49' W 122°25'0 0.0
2016-May-25 01:33N 37°49' W 122°25'0 0.2
2016-May-25 00:33N 37°49' W 122°25'1 1.3
2016-May-24 23:33N 37°50' W 122°25'1 1.4
2016-May-24 22:33N 37°49' W 122°25'2 2.4
2016-May-24 21:33N 37°49' W 122°28'2 2.4
2016-May-24 20:33N 37°49' W 122°25'2 2.0
2016-May-24 19:33N 37°49' W 122°27'2 2.2
2016-May-24 18:33N 37°49' W 122°24'0 0.3
2016-May-24 17:33N 37°49' W 122°25'0 0.0
2016-May-24 16:24N 37°49' W 122°25'0 0.0
2016-May-24 15:33N 37°49' W 122°25'0 0.0
2016-May-24 14:29N 37°49' W 122°25'0 0.0
2016-May-24 13:30N 37°49' W 122°25'0 0.0
2016-May-24 12:27N 37°49' W 122°25'0 0.0
2016-May-24 11:30N 37°49' W 122°25'0 0.0
2016-May-24 10:30N 37°49' W 122°25'0 0.0
2016-May-24 09:32N 37°49' W 122°25'0 0.0
2016-May-24 08:30N 37°49' W 122°25'0 0.0
2016-May-24 07:33N 37°49' W 122°25'0 0.0
2016-May-24 06:32N 37°49' W 122°25'0 0.0
2016-May-24 05:33N 37°49' W 122°25'0 0.0
2016-May-24 04:32N 37°49' W 122°25'0 0.0
2016-May-24 03:31N 37°49' W 122°25'0 0.0
2016-May-24 02:26N 37°49' W 122°25'0 0.0
2016-May-24 01:33N 37°49' W 122°25'0 0.2
2016-May-24 00:34N 37°49' W 122°25'1 1.0
2016-May-23 23:33N 37°50' W 122°25'1 1.1
2016-May-23 22:27N 37°49' W 122°25'3 2.9
2016-May-23 21:34N 37°49' W 122°28'3 2.2
2016-May-23 20:23N 37°49' W 122°25'2 2.6
2016-May-23 19:34N 37°49' W 122°27'2 1.9
2016-May-23 18:33N 37°50' W 122°25'1 1.0
2016-May-23 17:32N 37°49' W 122°25'0 0.0
2016-May-23 16:33N 37°49' W 122°25'0 0.0
2016-May-23 15:33N 37°49' W 122°25'0 0.0
2016-May-23 14:32N 37°49' W 122°25'0 0.0
2016-May-23 13:17N 37°49' W 122°25'0 0.0
2016-May-23 12:32N 37°49' W 122°25'0 0.0
2016-May-23 11:31N 37°49' W 122°25'0 0.0
2016-May-23 10:26N 37°49' W 122°25'0 0.0
2016-May-23 09:33N 37°49' W 122°25'0 0.0
2016-May-23 08:28N 37°49' W 122°25'0 0.0
2016-May-23 07:33N 37°49' W 122°25'0 0.0
2016-May-23 06:24N 37°49' W 122°25'0 0.0
2016-May-23 05:33N 37°49' W 122°25'0 0.0
2016-May-23 04:31N 37°49' W 122°25'0 0.0
2016-May-23 03:30N 37°49' W 122°25'0 0.0
2016-May-23 02:29N 37°49' W 122°25'0 0.0
2016-May-23 01:28N 37°49' W 122°25'0 0.2
2016-May-23 00:34N 37°49' W 122°25'1 1.1
2016-May-22 23:34N 37°50' W 122°26'1 1.3
2016-May-22 22:33N 37°49' W 122°25'3 2.8
2016-May-22 21:33N 37°49' W 122°28'3 2.8
2016-May-22 20:33N 37°49' W 122°25'2 2.4
2016-May-22 19:34N 37°49' W 122°28'3 2.6
2016-May-22 18:33N 37°49' W 122°24'0 0.4
2016-May-22 17:33N 37°49' W 122°25'0 0.0
2016-May-22 16:33N 37°49' W 122°25'0 0.0
2016-May-22 15:33N 37°49' W 122°25'0 0.0
2016-May-22 14:30N 37°49' W 122°25'0 0.0
2016-May-22 13:31N 37°49' W 122°25'0 0.0
2016-May-22 12:29N 37°49' W 122°25'0 0.0
2016-May-22 11:32N 37°49' W 122°25'0 0.0
2016-May-22 10:31N 37°49' W 122°25'0 0.0
2016-May-22 09:26N 37°49' W 122°25'0 0.0
2016-May-22 08:32N 37°49' W 122°25'0 0.0
2016-May-22 07:19N 37°49' W 122°25'0 0.0
2016-May-22 06:33N 37°49' W 122°25'0 0.0
2016-May-22 05:28N 37°49' W 122°25'0 0.0
2016-May-22 04:32N 37°49' W 122°25'0 0.0
2016-May-22 03:29N 37°49' W 122°25'0 0.0
2016-May-22 02:31N 37°49' W 122°25'0 0.0
2016-May-22 01:32N 37°49' W 122°25'0 0.0
2016-May-22 00:33N 37°49' W 122°25'1 1.1
2016-May-21 23:34N 37°49' W 122°26'1 1.2
2016-May-21 22:34N 37°49' W 122°25'3 3.3
2016-May-21 21:34N 37°49' W 122°29'3 3.3
2016-May-21 20:33N 37°49' W 122°25'2 2.1
2016-May-21 19:34N 37°49' W 122°27'2 2.3
2016-May-21 18:34N 37°49' W 122°24'0 0.3
2016-May-21 17:32N 37°49' W 122°25'0 0.0
2016-May-21 16:30N 37°49' W 122°25'0 0.0
2016-May-21 15:17N 37°49' W 122°25'0 0.0
2016-May-21 14:24N 37°49' W 122°25'0 0.0
2016-May-21 13:30N 37°49' W 122°25'0 0.0
2016-May-21 12:25N 37°49' W 122°25'0 0.0
2016-May-21 11:32N 37°49' W 122°25'0 0.0
2016-May-21 10:31N 37°49' W 122°25'0 0.0
2016-May-21 09:28N 37°49' W 122°25'0 0.0
2016-May-21 08:29N 37°49' W 122°25'0 0.0
2016-May-21 07:30N 37°49' W 122°25'0 0.0
2016-May-21 06:31N 37°49' W 122°25'0 0.0
2016-May-21 05:31N 37°49' W 122°25'0 0.0
2016-May-21 04:23N 37°49' W 122°25'3 3.9
2016-May-21 03:33N 37°51' W 122°27'0 0.2
2016-May-21 02:33N 37°51' W 122°27'4 4.1
2016-May-21 01:33N 37°48' W 122°24'1 1.1
2016-May-21 00:33N 37°49' W 122°25'0 0.0
2016-May-20 23:33N 37°49' W 122°25'2 1.9
2016-May-20 22:33N 37°49' W 122°27'2 1.9
2016-May-20 21:33N 37°49' W 122°25'3 2.6
2016-May-20 20:33N 37°49' W 122°28'2 2.2
2016-May-20 19:33N 37°50' W 122°25'1 1.5
2016-May-20 18:33N 37°49' W 122°25'0 0.0
2016-May-20 17:33N 37°49' W 122°25'0 0.0
2016-May-20 16:33N 37°49' W 122°25'0 0.0
2016-May-20 15:33N 37°49' W 122°25'0 0.0
2016-May-20 14:33N 37°49' W 122°25'0 0.0
2016-May-20 13:33N 37°49' W 122°25'0 0.0
2016-May-20 12:33N 37°49' W 122°25'0 0.0
2016-May-20 11:33N 37°49' W 122°25'0 0.0
2016-May-20 10:33N 37°49' W 122°25'0 0.0
2016-May-20 09:33N 37°49' W 122°25'0 0.0
2016-May-20 08:33N 37°49' W 122°25'0 0.0
2016-May-20 07:33N 37°49' W 122°25'0 0.0
2016-May-20 06:33N 37°49' W 122°25'0 0.0
2016-May-20 05:33N 37°49' W 122°25'0 0.0
2016-May-20 04:33N 37°49' W 122°25'0 0.0
2016-May-20 03:33N 37°49' W 122°25'0 0.0
2016-May-20 02:33N 37°49' W 122°25'0 0.1
2016-May-20 01:33N 37°49' W 122°25'0 0.1
2016-May-20 00:33N 37°49' W 122°25'0 0.1
2016-May-19 23:33N 37°49' W 122°25'3 2.8
2016-May-19 22:33N 37°49' W 122°28'3 2.8
2016-May-19 21:33N 37°49' W 122°25'3 2.6
2016-May-19 20:33N 37°49' W 122°28'3 2.9
2016-May-19 19:33N 37°49' W 122°24'0 0.5
2016-May-19 18:33N 37°49' W 122°25'0 0.2
2016-May-19 17:33N 37°49' W 122°25'0 0.0
2016-May-19 16:30N 37°49' W 122°25'0 0.0
2016-May-19 15:32N 37°49' W 122°25'0 0.0
2016-May-19 14:31N 37°49' W 122°25'0 0.0
2016-May-19 13:32N 37°49' W 122°25'0 0.0
2016-May-19 12:28N 37°49' W 122°25'0 0.0
2016-May-19 11:13N 37°49' W 122°25'0 0.0
2016-May-19 10:31N 37°49' W 122°25'0 0.0
2016-May-19 09:27N 37°49' W 122°25'0 0.0
2016-May-19 08:33N 37°49' W 122°25'0 0.0
2016-May-19 07:33N 37°49' W 122°25'0 0.0
2016-May-19 06:31N 37°49' W 122°25'0 0.0
2016-May-19 05:29N 37°49' W 122°25'0 0.0
2016-May-19 04:32N 37°49' W 122°25'0 0.0
2016-May-19 03:26N 37°49' W 122°25'0 0.0
2016-May-19 02:30N 37°49' W 122°25'0 0.2
2016-May-19 01:33N 37°49' W 122°25'0 0.2
2016-May-19 00:33N 37°49' W 122°25'0 0.2
2016-May-18 23:33N 37°49' W 122°25'3 2.5
2016-May-18 22:33N 37°49' W 122°28'3 2.5
2016-May-18 21:33N 37°49' W 122°25'3 2.8
2016-May-18 20:33N 37°49' W 122°28'4 4.0
2016-May-18 19:33N 37°48' W 122°23'1 1.3
2016-May-18 18:33N 37°49' W 122°25'0 0.1
2016-May-18 17:19N 37°49' W 122°25'0 0.0
2016-May-18 16:21N 37°49' W 122°25'0 0.0
2016-May-18 15:33N 37°49' W 122°25'0 0.0
2016-May-18 14:30N 37°49' W 122°25'0 0.0
2016-May-18 13:32N 37°49' W 122°25'0 0.0
2016-May-18 12:32N 37°49' W 122°25'0 0.0
2016-May-18 11:32N 37°49' W 122°25'0 0.0
2016-May-18 10:32N 37°49' W 122°25'0 0.0
2016-May-18 09:32N 37°49' W 122°25'0 0.0
2016-May-18 08:29N 37°49' W 122°25'0 0.0
2016-May-18 07:32N 37°49' W 122°25'0 0.0
2016-May-18 06:24N 37°49' W 122°25'0 0.0
2016-May-18 05:32N 37°49' W 122°25'0 0.0
2016-May-18 04:30N 37°49' W 122°25'0 0.0
2016-May-18 03:32N 37°49' W 122°25'0 0.0
2016-May-18 02:33N 37°49' W 122°25'0 0.2
2016-May-18 01:34N 37°49' W 122°25'0 0.2
2016-May-18 00:33N 37°49' W 122°25'0 0.1
2016-May-17 23:33N 37°49' W 122°25'3 2.7
2016-May-17 22:34N 37°49' W 122°28'3 2.8
2016-May-17 21:33N 37°49' W 122°25'3 3.1
2016-May-17 20:33N 37°49' W 122°28'3 3.3
2016-May-17 19:33N 37°49' W 122°24'1 0.5
2016-May-17 18:33N 37°49' W 122°25'0 0.1
2016-May-17 17:32N 37°49' W 122°25'0 0.0
2016-May-17 16:32N 37°49' W 122°25'0 0.0
2016-May-17 15:31N 37°49' W 122°25'0 0.0
2016-May-17 14:17N 37°49' W 122°25'0 0.0
2016-May-17 13:32N 37°49' W 122°25'0 0.0
2016-May-17 12:21N 37°49' W 122°25'0 0.0
2016-May-17 11:32N 37°49' W 122°25'0 0.0
2016-May-17 10:33N 37°49' W 122°25'0 0.0
2016-May-17 09:26N 37°49' W 122°25'0 0.0
2016-May-17 08:33N 37°49' W 122°25'0 0.0
2016-May-17 07:32N 37°49' W 122°25'0 0.0
2016-May-17 06:30N 37°49' W 122°25'0 0.0
2016-May-17 05:28N 37°49' W 122°25'0 0.0
2016-May-17 04:31N 37°49' W 122°25'0 0.0
2016-May-17 03:31N 37°49' W 122°25'0 0.0
2016-May-17 02:24N 37°49' W 122°25'0 0.2
2016-May-17 01:33N 37°49' W 122°25'0 0.2
2016-May-17 00:33N 37°49' W 122°25'0 0.1
2016-May-16 23:34N 37°49' W 122°25'3 2.6
2016-May-16 22:34N 37°49' W 122°28'3 2.6
2016-May-16 21:32N 37°49' W 122°25'3 3.0
2016-May-16 20:34N 37°49' W 122°28'3 3.4
2016-May-16 19:33N 37°49' W 122°24'1 0.5
2016-May-16 18:33N 37°49' W 122°25'0 0.1
2016-May-16 17:32N 37°49' W 122°25'0 0.0
2016-May-16 16:28N 37°49' W 122°25'0 0.0
2016-May-16 15:33N 37°49' W 122°25'0 0.0
2016-May-16 14:33N 37°49' W 122°25'0 0.0
2016-May-16 13:21N 37°49' W 122°25'0 0.0
2016-May-16 12:33N 37°49' W 122°25'0 0.0
2016-May-16 11:16N 37°49' W 122°25'0 0.0
2016-May-16 10:30N 37°49' W 122°25'0 0.0
2016-May-16 08:19N 37°49' W 122°25'0 0.0
2016-May-16 07:25N 37°49' W 122°25'0 0.0
2016-May-16 06:24N 37°49' W 122°25'0 0.0
2016-May-16 05:33N 37°49' W 122°25'  
Track history (hours):
 
Tides and Currents Weather Stations Pressure Air Temp Water Temp Dewpoint Dewpoint Depression Visibility Wind Speed Wind Dir Waves Ship Positions

Oski

Owner: BLUE & GOLD FLEET, SAN FRANCISCO, CA. More information available from US FCC via Universal Licensing System and Coast Guard Vessel Documentation Center.

Last reported at 2016-May-26 04:33 UTC. Time now 2016-May-26 04:41 UTC.
Position N 37°49' W 122°25'.

Length 24 m; draft 2 m.

Type: Passenger vessel. MMSI: 366985320.

Date/timePositionNaut miles runAvg speedWind from/ knotsBaromVisibWave heightAir tempDewpointWater temp
2016-May-26 04:33N 37°49' W 122°25'0 0.0
2016-May-26 03:32N 37°49' W 122°25'0 0.0
2016-May-26 02:33N 37°49' W 122°25'0 0.0
2016-May-26 01:34N 37°49' W 122°25'0 0.0
2016-May-26 00:33N 37°49' W 122°25'0 0.1
2016-May-25 23:33N 37°49' W 122°25'2 2.2
2016-May-25 22:34N 37°49' W 122°27'2 2.2
2016-May-25 21:33N 37°49' W 122°25'2 2.2
2016-May-25 20:33N 37°49' W 122°27'3 2.6
2016-May-25 19:33N 37°49' W 122°24'1 0.5
2016-May-25 18:33N 37°49' W 122°25'0 0.2
2016-May-25 17:33N 37°49' W 122°25'0 0.0
2016-May-25 16:33N 37°49' W 122°25'0 0.0
2016-May-25 15:33N 37°49' W 122°25'0 0.0
2016-May-25 14:33N 37°49' W 122°25'0 0.0
2016-May-25 13:33N 37°49' W 122°25'0 0.0
2016-May-25 12:33N 37°49' W 122°25'0 0.0
2016-May-25 11:33N 37°49' W 122°25'0 0.0
2016-May-25 10:33N 37°49' W 122°25'0 0.0
2016-May-25 09:33N 37°49' W 122°25'0 0.0
2016-May-25 08:33N 37°49' W 122°25'0 0.0
2016-May-25 07:33N 37°49' W 122°25'0 0.0
2016-May-25 06:33N 37°49' W 122°25'0 0.0
2016-May-25 05:33N 37°49' W 122°25'0 0.0
2016-May-25 04:33N 37°49' W 122°25'0 0.0
2016-May-25 03:33N 37°49' W 122°25'0 0.0
2016-May-25 02:33N 37°49' W 122°25'0 0.0
2016-May-25 01:33N 37°49' W 122°25'0 0.2
2016-May-25 00:33N 37°49' W 122°25'1 1.3
2016-May-24 23:33N 37°50' W 122°25'1 1.4
2016-May-24 22:33N 37°49' W 122°25'2 2.4
2016-May-24 21:33N 37°49' W 122°28'2 2.4
2016-May-24 20:33N 37°49' W 122°25'2 2.0
2016-May-24 19:33N 37°49' W 122°27'2 2.2
2016-May-24 18:33N 37°49' W 122°24'0 0.3
2016-May-24 17:33N 37°49' W 122°25'0 0.0
2016-May-24 16:24N 37°49' W 122°25'0 0.0
2016-May-24 15:33N 37°49' W 122°25'0 0.0
2016-May-24 14:29N 37°49' W 122°25'0 0.0
2016-May-24 13:30N 37°49' W 122°25'0 0.0
2016-May-24 12:27N 37°49' W 122°25'0 0.0
2016-May-24 11:30N 37°49' W 122°25'0 0.0
2016-May-24 10:30N 37°49' W 122°25'0 0.0
2016-May-24 09:32N 37°49' W 122°25'0 0.0
2016-May-24 08:30N 37°49' W 122°25'0 0.0
2016-May-24 07:33N 37°49' W 122°25'0 0.0
2016-May-24 06:32N 37°49' W 122°25'0 0.0
2016-May-24 05:33N 37°49' W 122°25'0 0.0
2016-May-24 04:32N 37°49' W 122°25'0 0.0
2016-May-24 03:31N 37°49' W 122°25'0 0.0
2016-May-24 02:26N 37°49' W 122°25'0 0.0
2016-May-24 01:33N 37°49' W 122°25'0 0.2
2016-May-24 00:34N 37°49' W 122°25'1 1.0
2016-May-23 23:33N 37°50' W 122°25'1 1.1
2016-May-23 22:27N 37°49' W 122°25'3 2.9
2016-May-23 21:34N 37°49' W 122°28'3 2.2
2016-May-23 20:23N 37°49' W 122°25'2 2.6
2016-May-23 19:34N 37°49' W 122°27'2 1.9
2016-May-23 18:33N 37°50' W 122°25'1 1.0
2016-May-23 17:32N 37°49' W 122°25'0 0.0
2016-May-23 16:33N 37°49' W 122°25'0 0.0
2016-May-23 15:33N 37°49' W 122°25'0 0.0
2016-May-23 14:32N 37°49' W 122°25'0 0.0
2016-May-23 13:17N 37°49' W 122°25'0 0.0
2016-May-23 12:32N 37°49' W 122°25'0 0.0
2016-May-23 11:31N 37°49' W 122°25'0 0.0
2016-May-23 10:26N 37°49' W 122°25'0 0.0
2016-May-23 09:33N 37°49' W 122°25'0 0.0
2016-May-23 08:28N 37°49' W 122°25'0 0.0
2016-May-23 07:33N 37°49' W 122°25'0 0.0
2016-May-23 06:24N 37°49' W 122°25'0 0.0
2016-May-23 05:33N 37°49' W 122°25'0 0.0
2016-May-23 04:31N 37°49' W 122°25'0 0.0
2016-May-23 03:30N 37°49' W 122°25'0 0.0
2016-May-23 02:29N 37°49' W 122°25'0 0.0
2016-May-23 01:28N 37°49' W 122°25'0 0.2
2016-May-23 00:34N 37°49' W 122°25'1 1.1
2016-May-22 23:34N 37°50' W 122°26'1 1.3
2016-May-22 22:33N 37°49' W 122°25'3 2.8
2016-May-22 21:33N 37°49' W 122°28'3 2.8
2016-May-22 20:33N 37°49' W 122°25'2 2.4
2016-May-22 19:34N 37°49' W 122°28'3 2.6
2016-May-22 18:33N 37°49' W 122°24'0 0.4
2016-May-22 17:33N 37°49' W 122°25'0 0.0
2016-May-22 16:33N 37°49' W 122°25'0 0.0
2016-May-22 15:33N 37°49' W 122°25'0 0.0
2016-May-22 14:30N 37°49' W 122°25'0 0.0
2016-May-22 13:31N 37°49' W 122°25'0 0.0
2016-May-22 12:29N 37°49' W 122°25'0 0.0
2016-May-22 11:32N 37°49' W 122°25'0 0.0
2016-May-22 10:31N 37°49' W 122°25'0 0.0
2016-May-22 09:26N 37°49' W 122°25'0 0.0
2016-May-22 08:32N 37°49' W 122°25'0 0.0
2016-May-22 07:19N 37°49' W 122°25'0 0.0
2016-May-22 06:33N 37°49' W 122°25'0 0.0
2016-May-22 05:28N 37°49' W 122°25'0 0.0
2016-May-22 04:32N 37°49' W 122°25'0 0.0
2016-May-22 03:29N 37°49' W 122°25'0 0.0
2016-May-22 02:31N 37°49' W 122°25'0 0.0
2016-May-22 01:32N 37°49' W 122°25'0 0.0
2016-May-22 00:33N 37°49' W 122°25'1 1.1
2016-May-21 23:34N 37°49' W 122°26'1 1.2
2016-May-21 22:34N 37°49' W 122°25'3 3.3
2016-May-21 21:34N 37°49' W 122°29'3 3.3
2016-May-21 20:33N 37°49' W 122°25'2 2.1
2016-May-21 19:34N 37°49' W 122°27'2 2.3
2016-May-21 18:34N 37°49' W 122°24'0 0.3
2016-May-21 17:32N 37°49' W 122°25'0 0.0
2016-May-21 16:30N 37°49' W 122°25'0 0.0
2016-May-21 15:17N 37°49' W 122°25'0 0.0
2016-May-21 14:24N 37°49' W 122°25'0 0.0
2016-May-21 13:30N 37°49' W 122°25'0 0.0
2016-May-21 12:25N 37°49' W 122°25'0 0.0
2016-May-21 11:32N 37°49' W 122°25'0 0.0
2016-May-21 10:31N 37°49' W 122°25'0 0.0
2016-May-21 09:28N 37°49' W 122°25'0 0.0
2016-May-21 08:29N 37°49' W 122°25'0 0.0
2016-May-21 07:30N 37°49' W 122°25'0 0.0
2016-May-21 06:31N 37°49' W 122°25'0 0.0
2016-May-21 05:31N 37°49' W 122°25'0 0.0
2016-May-21 04:23N 37°49' W 122°25'3 3.9
2016-May-21 03:33N 37°51' W 122°27'0 0.2
2016-May-21 02:33N 37°51' W 122°27'4 4.1
2016-May-21 01:33N 37°48' W 122°24'1 1.1
2016-May-21 00:33N 37°49' W 122°25'0 0.0
2016-May-20 23:33N 37°49' W 122°25'2 1.9
2016-May-20 22:33N 37°49' W 122°27'2 1.9
2016-May-20 21:33N 37°49' W 122°25'3 2.6
2016-May-20 20:33N 37°49' W 122°28'2 2.2
2016-May-20 19:33N 37°50' W 122°25'1 1.5
2016-May-20 18:33N 37°49' W 122°25'0 0.0
2016-May-20 17:33N 37°49' W 122°25'0 0.0
2016-May-20 16:33N 37°49' W 122°25'0 0.0
2016-May-20 15:33N 37°49' W 122°25'0 0.0
2016-May-20 14:33N 37°49' W 122°25'0 0.0
2016-May-20 13:33N 37°49' W 122°25'0 0.0
2016-May-20 12:33N 37°49' W 122°25'0 0.0
2016-May-20 11:33N 37°49' W 122°25'0 0.0
2016-May-20 10:33N 37°49' W 122°25'0 0.0
2016-May-20 09:33N 37°49' W 122°25'0 0.0
2016-May-20 08:33N 37°49' W 122°25'0 0.0
2016-May-20 07:33N 37°49' W 122°25'0 0.0
2016-May-20 06:33N 37°49' W 122°25'0 0.0
2016-May-20 05:33N 37°49' W 122°25'0 0.0
2016-May-20 04:33N 37°49' W 122°25'0 0.0
2016-May-20 03:33N 37°49' W 122°25'0 0.0
2016-May-20 02:33N 37°49' W 122°25'0 0.1
2016-May-20 01:33N 37°49' W 122°25'0 0.1
2016-May-20 00:33N 37°49' W 122°25'0 0.1
2016-May-19 23:33N 37°49' W 122°25'3 2.8
2016-May-19 22:33N 37°49' W 122°28'3 2.8
2016-May-19 21:33N 37°49' W 122°25'3 2.6
2016-May-19 20:33N 37°49' W 122°28'3 2.9
2016-May-19 19:33N 37°49' W 122°24'0 0.5
2016-May-19 18:33N 37°49' W 122°25'0 0.2
2016-May-19 17:33N 37°49' W 122°25'0 0.0
2016-May-19 16:30N 37°49' W 122°25'0 0.0
2016-May-19 15:32N 37°49' W 122°25'0 0.0
2016-May-19 14:31N 37°49' W 122°25'0 0.0
2016-May-19 13:32N 37°49' W 122°25'0 0.0
2016-May-19 12:28N 37°49' W 122°25'0 0.0
2016-May-19 11:13N 37°49' W 122°25'0 0.0
2016-May-19 10:31N 37°49' W 122°25'0 0.0
2016-May-19 09:27N 37°49' W 122°25'0 0.0
2016-May-19 08:33N 37°49' W 122°25'0 0.0
2016-May-19 07:33N 37°49' W 122°25'0 0.0
2016-May-19 06:31N 37°49' W 122°25'0 0.0
2016-May-19 05:29N 37°49' W 122°25'0 0.0
2016-May-19 04:32N 37°49' W 122°25'0 0.0
2016-May-19 03:26N 37°49' W 122°25'0 0.0
2016-May-19 02:30N 37°49' W 122°25'0 0.2
2016-May-19 01:33N 37°49' W 122°25'0 0.2
2016-May-19 00:33N 37°49' W 122°25'0 0.2
2016-May-18 23:33N 37°49' W 122°25'3 2.5
2016-May-18 22:33N 37°49' W 122°28'3 2.5
2016-May-18 21:33N 37°49' W 122°25'3 2.8
2016-May-18 20:33N 37°49' W 122°28'4 4.0
2016-May-18 19:33N 37°48' W 122°23'1 1.3
2016-May-18 18:33N 37°49' W 122°25'0 0.1
2016-May-18 17:19N 37°49' W 122°25'0 0.0
2016-May-18 16:21N 37°49' W 122°25'0 0.0
2016-May-18 15:33N 37°49' W 122°25'0 0.0
2016-May-18 14:30N 37°49' W 122°25'0 0.0
2016-May-18 13:32N 37°49' W 122°25'0 0.0
2016-May-18 12:32N 37°49' W 122°25'0 0.0
2016-May-18 11:32N 37°49' W 122°25'0 0.0
2016-May-18 10:32N 37°49' W 122°25'0 0.0
2016-May-18 09:32N 37°49' W 122°25'0 0.0
2016-May-18 08:29N 37°49' W 122°25'0 0.0
2016-May-18 07:32N 37°49' W 122°25'0 0.0
2016-May-18 06:24N 37°49' W 122°25'0 0.0
2016-May-18 05:32N 37°49' W 122°25'0 0.0
2016-May-18 04:30N 37°49' W 122°25'0 0.0
2016-May-18 03:32N 37°49' W 122°25'0 0.0
2016-May-18 02:33N 37°49' W 122°25'0 0.2
2016-May-18 01:34N 37°49' W 122°25'0 0.2
2016-May-18 00:33N 37°49' W 122°25'0 0.1
2016-May-17 23:33N 37°49' W 122°25'3 2.7
2016-May-17 22:34N 37°49' W 122°28'3 2.8
2016-May-17 21:33N 37°49' W 122°25'3 3.1
2016-May-17 20:33N 37°49' W 122°28'3 3.3
2016-May-17 19:33N 37°49' W 122°24'1 0.5
2016-May-17 18:33N 37°49' W 122°25'0 0.1
2016-May-17 17:32N 37°49' W 122°25'0 0.0
2016-May-17 16:32N 37°49' W 122°25'0 0.0
2016-May-17 15:31N 37°49' W 122°25'0 0.0
2016-May-17 14:17N 37°49' W 122°25'0 0.0
2016-May-17 13:32N 37°49' W 122°25'0 0.0
2016-May-17 12:21N 37°49' W 122°25'0 0.0
2016-May-17 11:32N 37°49' W 122°25'0 0.0
2016-May-17 10:33N 37°49' W 122°25'0 0.0
2016-May-17 09:26N 37°49' W 122°25'0 0.0
2016-May-17 08:33N 37°49' W 122°25'0 0.0
2016-May-17 07:32N 37°49' W 122°25'0 0.0
2016-May-17 06:30N 37°49' W 122°25'0 0.0
2016-May-17 05:28N 37°49' W 122°25'0 0.0
2016-May-17 04:31N 37°49' W 122°25'0 0.0
2016-May-17 03:31N 37°49' W 122°25'0 0.0
2016-May-17 02:24N 37°49' W 122°25'0 0.2
2016-May-17 01:33N 37°49' W 122°25'0 0.2
2016-May-17 00:33N 37°49' W 122°25'0 0.1
2016-May-16 23:34N 37°49' W 122°25'3 2.6
2016-May-16 22:34N 37°49' W 122°28'3 2.6
2016-May-16 21:32N 37°49' W 122°25'3 3.0
2016-May-16 20:34N 37°49' W 122°28'3 3.4
2016-May-16 19:33N 37°49' W 122°24'1 0.5
2016-May-16 18:33N 37°49' W 122°25'0 0.1
2016-May-16 17:32N 37°49' W 122°25'0 0.0
2016-May-16 16:28N 37°49' W 122°25'0 0.0
2016-May-16 15:33N 37°49' W 122°25'0 0.0
2016-May-16 14:33N 37°49' W 122°25'0 0.0
2016-May-16 13:21N 37°49' W 122°25'0 0.0
2016-May-16 12:33N 37°49' W 122°25'0 0.0
2016-May-16 11:16N 37°49' W 122°25'0 0.0
2016-May-16 10:30N 37°49' W 122°25'0 0.0
2016-May-16 08:19N 37°49' W 122°25'0 0.0
2016-May-16 07:25N 37°49' W 122°25'0 0.0
2016-May-16 06:24N 37°49' W 122°25'0 0.0
2016-May-16 05:33N 37°49' W 122°25'  

Dump ship's entire track history